sensor_id;sensor_type;location;lat;lon;timestamp;temperature;humidity
24638;DHT22;12773;50.162;8.548;2022-07-06T08:48:59;19.00;99.90
24638;DHT22;12773;50.162;8.548;2022-07-06T08:53:45;19.70;99.90
24638;DHT22;12773;50.162;8.548;2022-07-06T08:56:34;20.20;99.90
24638;DHT22;12773;50.162;8.548;2022-07-06T08:59:22;20.50;99.90
24638;DHT22;12773;50.162;8.548;2022-07-06T09:02:13;20.90;99.90
24638;DHT22;12773;50.162;8.548;2022-07-06T09:05:03;21.00;98.80
24638;DHT22;12773;50.162;8.548;2022-07-06T09:07:51;20.90;97.80
24638;DHT22;12773;50.162;8.548;2022-07-06T09:10:40;21.00;97.60
24638;DHT22;12773;50.162;8.548;2022-07-06T09:13:27;21.00;98.20
24638;DHT22;12773;50.162;8.548;2022-07-06T09:16:16;21.10;97.60
24638;DHT22;12773;50.162;8.548;2022-07-06T09:19:06;21.20;96.50
24638;DHT22;12773;50.162;8.548;2022-07-06T09:21:54;21.40;96.80
24638;DHT22;12773;50.162;8.548;2022-07-06T09:24:43;21.70;96.80
24638;DHT22;12773;50.162;8.548;2022-07-06T09:27:30;21.80;95.80
24638;DHT22;12773;50.162;8.548;2022-07-06T09:30:17;22.10;95.00
24638;DHT22;12773;50.162;8.548;2022-07-06T09:33:06;22.40;93.80
24638;DHT22;12773;50.162;8.548;2022-07-06T09:35:55;22.40;93.20
24638;DHT22;12773;50.162;8.548;2022-07-06T09:38:44;22.50;92.10
24638;DHT22;12773;50.162;8.548;2022-07-06T09:41:32;22.50;91.80
24638;DHT22;12773;50.162;8.548;2022-07-06T09:44:27;22.30;91.50
24638;DHT22;12773;50.162;8.548;2022-07-06T09:47:11;22.10;91.30
24638;DHT22;12773;50.162;8.548;2022-07-06T09:49:59;22.00;91.20
24638;DHT22;12773;50.162;8.548;2022-07-06T09:52:54;22.10;91.40
24638;DHT22;12773;50.162;8.548;2022-07-06T09:55:51;22.20;89.90
24638;DHT22;12773;50.162;8.548;2022-07-06T09:58:37;22.40;90.40
24638;DHT22;12773;50.162;8.548;2022-07-06T10:01:27;22.50;89.20
24638;DHT22;12773;50.162;8.548;2022-07-06T10:04:16;22.60;88.20
24638;DHT22;12773;50.162;8.548;2022-07-06T10:07:06;22.60;87.70
24638;DHT22;12773;50.162;8.548;2022-07-06T10:09:56;22.90;86.70
24638;DHT22;12773;50.162;8.548;2022-07-06T10:12:45;23.00;85.40
24638;DHT22;12773;50.162;8.548;2022-07-06T10:15:39;22.90;86.30
24638;DHT22;12773;50.162;8.548;2022-07-06T10:18:26;23.10;87.10
24638;DHT22;12773;50.162;8.548;2022-07-06T10:21:14;23.50;83.70
24638;DHT22;12773;50.162;8.548;2022-07-06T10:24:03;23.50;82.10
24638;DHT22;12773;50.162;8.548;2022-07-06T10:26:51;23.70;81.30
24638;DHT22;12773;50.162;8.548;2022-07-06T10:29:39;23.70;79.80
24638;DHT22;12773;50.162;8.548;2022-07-06T10:32:27;23.60;79.70
24638;DHT22;12773;50.162;8.548;2022-07-06T10:35:15;23.80;79.20
24638;DHT22;12773;50.162;8.548;2022-07-06T10:40:58;24.50;77.10
24638;DHT22;12773;50.162;8.548;2022-07-06T10:43:50;25.00;77.00
24638;DHT22;12773;50.162;8.548;2022-07-06T10:46:37;25.50;77.40
24638;DHT22;12773;50.162;8.548;2022-07-06T10:49:26;25.80;71.30
24638;DHT22;12773;50.162;8.548;2022-07-06T10:52:18;25.80;69.20
24638;DHT22;12773;50.162;8.548;2022-07-06T10:55:06;25.00;69.90
24638;DHT22;12773;50.162;8.548;2022-07-06T10:57:54;24.60;69.40
24638;DHT22;12773;50.162;8.548;2022-07-06T11:03:40;23.90;68.30
24638;DHT22;12773;50.162;8.548;2022-07-06T11:06:34;23.90;70.50
24638;DHT22;12773;50.162;8.548;2022-07-06T11:09:30;23.70;71.20
24638;DHT22;12773;50.162;8.548;2022-07-06T11:12:19;23.90;71.50
24638;DHT22;12773;50.162;8.548;2022-07-06T11:15:07;23.70;69.80
24638;DHT22;12773;50.162;8.548;2022-07-06T11:18:12;24.40;74.20
24638;DHT22;12773;50.162;8.548;2022-07-06T11:21:20;24.80;70.30
24638;DHT22;12773;50.162;8.548;2022-07-06T11:24:10;24.80;68.10
24638;DHT22;12773;50.162;8.548;2022-07-06T11:26:58;25.10;68.30
24638;DHT22;12773;50.162;8.548;2022-07-06T11:29:46;25.40;65.90
24638;DHT22;12773;50.162;8.548;2022-07-06T11:32:35;25.80;63.30
24638;DHT22;12773;50.162;8.548;2022-07-06T11:35:22;26.60;68.30
24638;DHT22;12773;50.162;8.548;2022-07-06T11:38:26;26.20;60.40
24638;DHT22;12773;50.162;8.548;2022-07-06T11:41:15;25.70;59.80
24638;DHT22;12773;50.162;8.548;2022-07-06T11:44:02;25.20;61.00
24638;DHT22;12773;50.162;8.548;2022-07-06T11:46:50;25.00;62.80
24638;DHT22;12773;50.162;8.548;2022-07-06T11:49:39;24.70;62.60
24638;DHT22;12773;50.162;8.548;2022-07-06T11:52:26;24.50;64.70
24638;DHT22;12773;50.162;8.548;2022-07-06T11:55:17;24.20;62.60
24638;DHT22;12773;50.162;8.548;2022-07-06T11:58:04;24.20;64.10
24638;DHT22;12773;50.162;8.548;2022-07-06T12:01:05;24.20;66.40
24638;DHT22;12773;50.162;8.548;2022-07-06T12:03:52;24.50;65.50
24638;DHT22;12773;50.162;8.548;2022-07-06T12:06:43;25.00;64.90
24638;DHT22;12773;50.162;8.548;2022-07-06T12:09:32;25.60;65.30
24638;DHT22;12773;50.162;8.548;2022-07-06T12:12:19;25.60;59.80
24638;DHT22;12773;50.162;8.548;2022-07-06T12:15:07;25.10;60.10
24638;DHT22;12773;50.162;8.548;2022-07-06T12:17:55;24.80;59.90
24638;DHT22;12773;50.162;8.548;2022-07-06T12:20:43;25.10;62.30
24638;DHT22;12773;50.162;8.548;2022-07-06T12:23:41;24.90;59.80
24638;DHT22;12773;50.162;8.548;2022-07-06T12:26:37;25.10;59.90
24638;DHT22;12773;50.162;8.548;2022-07-06T12:29:19;25.30;59.80
24638;DHT22;12773;50.162;8.548;2022-07-06T12:32:15;25.50;58.90
24638;DHT22;12773;50.162;8.548;2022-07-06T12:35:07;25.70;59.80
24638;DHT22;12773;50.162;8.548;2022-07-06T12:37:56;26.30;59.60
24638;DHT22;12773;50.162;8.548;2022-07-06T12:40:45;26.30;57.90
24638;DHT22;12773;50.162;8.548;2022-07-06T12:46:30;25.50;58.70
24638;DHT22;12773;50.162;8.548;2022-07-06T12:49:22;25.10;62.00
24638;DHT22;12773;50.162;8.548;2022-07-06T12:52:13;25.50;59.70
24638;DHT22;12773;50.162;8.548;2022-07-06T12:55:02;25.20;59.10
24638;DHT22;12773;50.162;8.548;2022-07-06T12:57:51;25.20;60.00
24638;DHT22;12773;50.162;8.548;2022-07-06T13:00:43;25.40;62.40
24638;DHT22;12773;50.162;8.548;2022-07-06T13:03:39;25.70;62.00
24638;DHT22;12773;50.162;8.548;2022-07-06T13:06:32;25.60;59.60
24638;DHT22;12773;50.162;8.548;2022-07-06T13:09:21;25.10;59.10
24638;DHT22;12773;50.162;8.548;2022-07-06T13:12:08;25.40;60.30
24638;DHT22;12773;50.162;8.548;2022-07-06T13:14:56;25.80;59.10
24638;DHT22;12773;50.162;8.548;2022-07-06T13:17:43;26.00;58.00
24638;DHT22;12773;50.162;8.548;2022-07-06T13:20:31;25.50;57.80
24638;DHT22;12773;50.162;8.548;2022-07-06T13:23:18;25.90;58.90
24638;DHT22;12773;50.162;8.548;2022-07-06T13:26:06;25.90;58.00
24638;DHT22;12773;50.162;8.548;2022-07-06T13:28:54;26.00;57.50
24638;DHT22;12773;50.162;8.548;2022-07-06T13:31:41;26.30;58.00
24638;DHT22;12773;50.162;8.548;2022-07-06T13:34:28;26.00;56.10
24638;DHT22;12773;50.162;8.548;2022-07-06T13:37:15;26.10;56.40
24638;DHT22;12773;50.162;8.548;2022-07-06T13:40:03;26.00;55.80
24638;DHT22;12773;50.162;8.548;2022-07-06T13:42:50;26.30;56.10
24638;DHT22;12773;50.162;8.548;2022-07-06T13:45:39;26.50;54.60
24638;DHT22;12773;50.162;8.548;2022-07-06T13:48:26;26.30;55.20
24638;DHT22;12773;50.162;8.548;2022-07-06T13:51:14;25.90;54.20
24638;DHT22;12773;50.162;8.548;2022-07-06T13:54:01;25.60;54.10
24638;DHT22;12773;50.162;8.548;2022-07-06T13:56:48;25.60;55.10
24638;DHT22;12773;50.162;8.548;2022-07-06T13:59:36;25.70;56.00
24638;DHT22;12773;50.162;8.548;2022-07-06T14:02:24;25.40;56.80
24638;DHT22;12773;50.162;8.548;2022-07-06T14:05:11;25.10;57.90
24638;DHT22;12773;50.162;8.548;2022-07-06T14:07:58;25.50;56.40
24638;DHT22;12773;50.162;8.548;2022-07-06T14:10:45;25.40;56.50
24638;DHT22;12773;50.162;8.548;2022-07-06T14:13:33;25.00;57.20
24638;DHT22;12773;50.162;8.548;2022-07-06T14:16:20;25.40;58.70
24638;DHT22;12773;50.162;8.548;2022-07-06T14:19:08;25.60;57.40
24638;DHT22;12773;50.162;8.548;2022-07-06T14:21:57;26.10;58.10
24638;DHT22;12773;50.162;8.548;2022-07-06T14:24:45;26.60;56.60
24638;DHT22;12773;50.162;8.548;2022-07-06T14:27:37;26.80;55.80
24638;DHT22;12773;50.162;8.548;2022-07-06T14:30:21;26.30;54.90
24638;DHT22;12773;50.162;8.548;2022-07-06T14:33:09;26.10;55.60
24638;DHT22;12773;50.162;8.548;2022-07-06T14:35:56;25.90;56.10
24638;DHT22;12773;50.162;8.548;2022-07-06T14:38:45;25.90;56.40
24638;DHT22;12773;50.162;8.548;2022-07-06T14:41:32;25.50;56.90
24638;DHT22;12773;50.162;8.548;2022-07-06T14:44:21;25.20;58.00
24638;DHT22;12773;50.162;8.548;2022-07-06T14:47:08;24.90;58.50
24638;DHT22;12773;50.162;8.548;2022-07-06T14:49:55;24.60;58.70
24638;DHT22;12773;50.162;8.548;2022-07-06T14:52:43;23.90;60.10
24638;DHT22;12773;50.162;8.548;2022-07-06T14:55:31;23.80;61.30
24638;DHT22;12773;50.162;8.548;2022-07-06T14:58:18;23.60;62.50
24638;DHT22;12773;50.162;8.548;2022-07-06T15:01:05;23.60;62.50
24638;DHT22;12773;50.162;8.548;2022-07-06T15:03:53;23.70;61.80
24638;DHT22;12773;50.162;8.548;2022-07-06T15:06:41;23.40;61.70
24638;DHT22;12773;50.162;8.548;2022-07-06T15:09:30;23.30;62.80
24638;DHT22;12773;50.162;8.548;2022-07-06T15:12:18;23.60;62.60
24638;DHT22;12773;50.162;8.548;2022-07-06T15:15:06;23.40;62.00
24638;DHT22;12773;50.162;8.548;2022-07-06T15:17:53;23.60;62.80
24638;DHT22;12773;50.162;8.548;2022-07-06T15:20:40;23.70;60.80
24638;DHT22;12773;50.162;8.548;2022-07-06T15:23:28;23.70;60.60
24638;DHT22;12773;50.162;8.548;2022-07-06T15:26:16;23.50;61.40
24638;DHT22;12773;50.162;8.548;2022-07-06T15:29:04;23.40;60.50
24638;DHT22;12773;50.162;8.548;2022-07-06T15:31:51;23.30;61.90
24638;DHT22;12773;50.162;8.548;2022-07-06T15:34:39;23.60;63.10
24638;DHT22;12773;50.162;8.548;2022-07-06T15:37:26;23.90;59.90
24638;DHT22;12773;50.162;8.548;2022-07-06T15:40:13;23.70;59.70
24638;DHT22;12773;50.162;8.548;2022-07-06T15:43:02;23.70;60.70
24638;DHT22;12773;50.162;8.548;2022-07-06T15:46:01;23.90;61.00
24638;DHT22;12773;50.162;8.548;2022-07-06T15:48:42;24.30;60.40
24638;DHT22;12773;50.162;8.548;2022-07-06T15:51:30;24.60;60.10
24638;DHT22;12773;50.162;8.548;2022-07-06T15:54:17;24.30;59.90
24638;DHT22;12773;50.162;8.548;2022-07-06T15:57:05;24.60;60.60
24638;DHT22;12773;50.162;8.548;2022-07-06T15:59:52;24.10;60.00
24638;DHT22;12773;50.162;8.548;2022-07-06T16:02:39;23.90;59.90
24638;DHT22;12773;50.162;8.548;2022-07-06T16:05:27;24.50;60.20
24638;DHT22;12773;50.162;8.548;2022-07-06T16:08:17;24.70;59.50
24638;DHT22;12773;50.162;8.548;2022-07-06T16:11:06;24.80;58.80
24638;DHT22;12773;50.162;8.548;2022-07-06T16:13:53;24.70;58.60
24638;DHT22;12773;50.162;8.548;2022-07-06T16:16:43;24.50;58.80
24638;DHT22;12773;50.162;8.548;2022-07-06T16:19:30;24.60;60.30
24638;DHT22;12773;50.162;8.548;2022-07-06T16:22:18;25.00;59.50
24638;DHT22;12773;50.162;8.548;2022-07-06T16:25:05;24.80;59.50
24638;DHT22;12773;50.162;8.548;2022-07-06T16:27:53;24.80;58.80
24638;DHT22;12773;50.162;8.548;2022-07-06T16:30:40;24.70;59.10
24638;DHT22;12773;50.162;8.548;2022-07-06T16:33:27;25.00;58.90
24638;DHT22;12773;50.162;8.548;2022-07-06T16:36:16;25.10;58.60
24638;DHT22;12773;50.162;8.548;2022-07-06T16:39:03;25.40;58.40
24638;DHT22;12773;50.162;8.548;2022-07-06T16:41:50;25.20;58.00
24638;DHT22;12773;50.162;8.548;2022-07-06T16:44:40;25.10;58.40
24638;DHT22;12773;50.162;8.548;2022-07-06T16:47:27;24.80;58.20
24638;DHT22;12773;50.162;8.548;2022-07-06T16:50:14;24.80;58.70
24638;DHT22;12773;50.162;8.548;2022-07-06T16:53:02;25.00;59.30
24638;DHT22;12773;50.162;8.548;2022-07-06T16:55:49;24.40;59.00
24638;DHT22;12773;50.162;8.548;2022-07-06T16:58:36;24.20;59.80
24638;DHT22;12773;50.162;8.548;2022-07-06T17:01:23;24.00;59.90
24638;DHT22;12773;50.162;8.548;2022-07-06T17:04:11;23.90;59.40
24638;DHT22;12773;50.162;8.548;2022-07-06T17:07:00;24.10;59.50
24638;DHT22;12773;50.162;8.548;2022-07-06T17:09:47;24.10;60.00
24638;DHT22;12773;50.162;8.548;2022-07-06T17:12:37;24.50;60.10
24638;DHT22;12773;50.162;8.548;2022-07-06T17:15:24;24.80;59.60
24638;DHT22;12773;50.162;8.548;2022-07-06T17:18:12;25.00;59.20
24638;DHT22;12773;50.162;8.548;2022-07-06T17:21:01;25.20;58.40
24638;DHT22;12773;50.162;8.548;2022-07-06T17:23:49;25.80;58.10
24638;DHT22;12773;50.162;8.548;2022-07-06T17:26:36;26.30;56.90
24638;DHT22;12773;50.162;8.548;2022-07-06T17:29:26;26.50;56.40
24638;DHT22;12773;50.162;8.548;2022-07-06T17:32:13;26.40;57.20
24638;DHT22;12773;50.162;8.548;2022-07-06T17:35:02;26.60;56.60
24638;DHT22;12773;50.162;8.548;2022-07-06T17:37:49;26.80;56.10
24638;DHT22;12773;50.162;8.548;2022-07-06T17:40:38;27.10;55.80
24638;DHT22;12773;50.162;8.548;2022-07-06T17:43:32;26.60;56.00
24638;DHT22;12773;50.162;8.548;2022-07-06T17:46:20;26.90;56.00
24638;DHT22;12773;50.162;8.548;2022-07-06T17:49:08;26.70;56.10
24638;DHT22;12773;50.162;8.548;2022-07-06T17:51:55;26.40;57.00
24638;DHT22;12773;50.162;8.548;2022-07-06T17:54:43;26.50;56.40
24638;DHT22;12773;50.162;8.548;2022-07-06T17:57:33;26.50;55.90
24638;DHT22;12773;50.162;8.548;2022-07-06T18:00:21;26.70;55.90
24638;DHT22;12773;50.162;8.548;2022-07-06T18:03:08;26.70;55.70
24638;DHT22;12773;50.162;8.548;2022-07-06T18:05:56;26.10;56.30
24638;DHT22;12773;50.162;8.548;2022-07-06T18:08:44;25.40;57.30
24638;DHT22;12773;50.162;8.548;2022-07-06T18:11:32;24.60;58.30
24638;DHT22;12773;50.162;8.548;2022-07-06T18:14:19;24.00;59.00
24638;DHT22;12773;50.162;8.548;2022-07-06T18:17:07;23.50;59.90
24638;DHT22;12773;50.162;8.548;2022-07-06T18:19:55;23.40;60.70
24638;DHT22;12773;50.162;8.548;2022-07-06T18:22:42;23.00;61.70
24638;DHT22;12773;50.162;8.548;2022-07-06T18:25:30;22.80;62.60
24638;DHT22;12773;50.162;8.548;2022-07-06T18:28:18;22.40;63.00
24638;DHT22;12773;50.162;8.548;2022-07-06T18:31:05;22.30;63.90
24638;DHT22;12773;50.162;8.548;2022-07-06T18:33:53;22.10;64.10
24638;DHT22;12773;50.162;8.548;2022-07-06T18:36:41;22.00;65.00
24638;DHT22;12773;50.162;8.548;2022-07-06T18:39:28;22.00;65.70
24638;DHT22;12773;50.162;8.548;2022-07-06T18:42:16;22.00;66.10
24638;DHT22;12773;50.162;8.548;2022-07-06T18:45:04;21.80;66.80
24638;DHT22;12773;50.162;8.548;2022-07-06T18:47:51;21.70;67.40
24638;DHT22;12773;50.162;8.548;2022-07-06T18:50:41;21.70;67.70
24638;DHT22;12773;50.162;8.548;2022-07-06T18:53:28;21.60;68.00
24638;DHT22;12773;50.162;8.548;2022-07-06T18:56:17;21.50;68.30
24638;DHT22;12773;50.162;8.548;2022-07-06T18:59:06;21.30;69.20
24638;DHT22;12773;50.162;8.548;2022-07-06T19:01:53;21.10;70.20
24638;DHT22;12773;50.162;8.548;2022-07-06T19:04:41;21.10;71.30
24638;DHT22;12773;50.162;8.548;2022-07-06T19:07:29;21.00;71.50
24638;DHT22;12773;50.162;8.548;2022-07-06T19:10:17;21.00;71.70
24638;DHT22;12773;50.162;8.548;2022-07-06T19:13:04;20.90;72.40
24638;DHT22;12773;50.162;8.548;2022-07-06T19:15:52;20.90;72.40
24638;DHT22;12773;50.162;8.548;2022-07-06T19:18:39;20.90;73.40
24638;DHT22;12773;50.162;8.548;2022-07-06T19:21:27;20.80;74.00
24638;DHT22;12773;50.162;8.548;2022-07-06T19:24:15;20.70;74.60
24638;DHT22;12773;50.162;8.548;2022-07-06T19:27:02;20.60;74.70
24638;DHT22;12773;50.162;8.548;2022-07-06T19:29:50;20.50;74.80
24638;DHT22;12773;50.162;8.548;2022-07-06T19:32:40;20.50;75.70
24638;DHT22;12773;50.162;8.548;2022-07-06T19:35:27;20.40;76.60
24638;DHT22;12773;50.162;8.548;2022-07-06T19:38:15;20.30;77.20
24638;DHT22;12773;50.162;8.548;2022-07-06T19:41:02;20.30;77.80
24638;DHT22;12773;50.162;8.548;2022-07-06T19:43:50;20.20;79.00
24638;DHT22;12773;50.162;8.548;2022-07-06T19:46:37;20.00;79.10
24638;DHT22;12773;50.162;8.548;2022-07-06T19:49:26;19.90;80.70
24638;DHT22;12773;50.162;8.548;2022-07-06T19:52:14;19.60;82.20
24638;DHT22;12773;50.162;8.548;2022-07-06T19:55:01;19.40;83.90
24638;DHT22;12773;50.162;8.548;2022-07-06T19:57:48;19.30;84.60
24638;DHT22;12773;50.162;8.548;2022-07-06T20:00:36;19.20;85.20
24638;DHT22;12773;50.162;8.548;2022-07-06T20:03:25;19.10;85.90
24638;DHT22;12773;50.162;8.548;2022-07-06T20:06:13;19.10;86.50
24638;DHT22;12773;50.162;8.548;2022-07-06T20:09:01;19.00;87.80
24638;DHT22;12773;50.162;8.548;2022-07-06T20:11:49;18.90;89.10
24638;DHT22;12773;50.162;8.548;2022-07-06T20:14:36;18.70;90.70
24638;DHT22;12773;50.162;8.548;2022-07-06T20:17:24;18.40;92.10
24638;DHT22;12773;50.162;8.548;2022-07-06T20:20:11;18.30;93.20
24638;DHT22;12773;50.162;8.548;2022-07-06T20:22:59;18.30;93.60
24638;DHT22;12773;50.162;8.548;2022-07-06T20:25:47;18.30;95.20
24638;DHT22;12773;50.162;8.548;2022-07-06T20:28:34;18.10;95.90
24638;DHT22;12773;50.162;8.548;2022-07-06T20:31:23;18.00;96.50
24638;DHT22;12773;50.162;8.548;2022-07-06T20:34:11;18.00;97.30
24638;DHT22;12773;50.162;8.548;2022-07-06T20:36:59;18.00;98.00
24638;DHT22;12773;50.162;8.548;2022-07-06T20:39:46;17.90;98.50
24638;DHT22;12773;50.162;8.548;2022-07-06T20:42:33;17.90;99.40
24638;DHT22;12773;50.162;8.548;2022-07-06T20:45:21;17.80;99.90
24638;DHT22;12773;50.162;8.548;2022-07-06T20:48:09;17.70;99.90
24638;DHT22;12773;50.162;8.548;2022-07-06T20:50:57;17.80;99.90
24638;DHT22;12773;50.162;8.548;2022-07-06T20:53:44;17.60;99.90
24638;DHT22;12773;50.162;8.548;2022-07-06T20:56:32;17.60;99.90
24638;DHT22;12773;50.162;8.548;2022-07-06T20:59:19;17.60;99.90
24638;DHT22;12773;50.162;8.548;2022-07-06T21:02:07;17.60;99.90
24638;DHT22;12773;50.162;8.548;2022-07-06T21:04:56;17.60;99.90
24638;DHT22;12773;50.162;8.548;2022-07-06T21:07:43;17.60;99.90
24638;DHT22;12773;50.162;8.548;2022-07-06T21:10:31;17.60;99.90
24638;DHT22;12773;50.162;8.548;2022-07-06T21:13:19;17.50;99.90
24638;DHT22;12773;50.162;8.548;2022-07-06T21:16:06;17.40;99.90
24638;DHT22;12773;50.162;8.548;2022-07-06T21:18:54;17.30;99.90
24638;DHT22;12773;50.162;8.548;2022-07-06T21:21:41;17.20;99.90
24638;DHT22;12773;50.162;8.548;2022-07-06T21:24:29;17.30;99.90
24638;DHT22;12773;50.162;8.548;2022-07-06T21:27:16;17.40;99.90
24638;DHT22;12773;50.162;8.548;2022-07-06T21:30:04;17.40;99.90
24638;DHT22;12773;50.162;8.548;2022-07-06T21:32:52;17.50;99.90
24638;DHT22;12773;50.162;8.548;2022-07-06T21:35:39;17.50;99.90
24638;DHT22;12773;50.162;8.548;2022-07-06T21:38:27;17.50;99.90
24638;DHT22;12773;50.162;8.548;2022-07-06T21:41:15;17.50;99.90
24638;DHT22;12773;50.162;8.548;2022-07-06T21:44:02;17.60;99.90
24638;DHT22;12773;50.162;8.548;2022-07-06T21:46:49;17.70;99.90
24638;DHT22;12773;50.162;8.548;2022-07-06T21:49:37;17.80;99.90
24638;DHT22;12773;50.162;8.548;2022-07-06T21:52:25;17.80;99.90
24638;DHT22;12773;50.162;8.548;2022-07-06T21:55:13;17.80;99.90
24638;DHT22;12773;50.162;8.548;2022-07-06T21:58:01;17.70;99.90
24638;DHT22;12773;50.162;8.548;2022-07-06T22:00:48;17.60;99.90
24638;DHT22;12773;50.162;8.548;2022-07-06T22:03:36;17.50;99.90
24638;DHT22;12773;50.162;8.548;2022-07-06T22:06:23;17.50;99.90
24638;DHT22;12773;50.162;8.548;2022-07-06T22:09:11;17.50;99.90
24638;DHT22;12773;50.162;8.548;2022-07-06T22:11:59;17.50;99.90
24638;DHT22;12773;50.162;8.548;2022-07-06T22:14:46;17.60;99.90
24638;DHT22;12773;50.162;8.548;2022-07-06T22:17:34;17.70;99.90
24638;DHT22;12773;50.162;8.548;2022-07-06T22:20:22;17.80;99.90
24638;DHT22;12773;50.162;8.548;2022-07-06T22:23:10;17.70;99.90
24638;DHT22;12773;50.162;8.548;2022-07-06T22:25:57;17.60;99.90
24638;DHT22;12773;50.162;8.548;2022-07-06T22:28:44;17.50;99.90
24638;DHT22;12773;50.162;8.548;2022-07-06T22:31:32;17.50;99.90
24638;DHT22;12773;50.162;8.548;2022-07-06T22:34:19;17.50;99.90
24638;DHT22;12773;50.162;8.548;2022-07-06T22:37:07;17.50;99.90
24638;DHT22;12773;50.162;8.548;2022-07-06T22:39:56;17.60;99.90
24638;DHT22;12773;50.162;8.548;2022-07-06T22:43:01;17.50;99.90
24638;DHT22;12773;50.162;8.548;2022-07-06T22:45:49;17.50;99.90
24638;DHT22;12773;50.162;8.548;2022-07-06T22:48:36;17.60;99.90
24638;DHT22;12773;50.162;8.548;2022-07-06T22:51:24;17.80;99.90
24638;DHT22;12773;50.162;8.548;2022-07-06T22:54:11;18.00;99.90
24638;DHT22;12773;50.162;8.548;2022-07-06T22:56:59;18.00;99.90
24638;DHT22;12773;50.162;8.548;2022-07-06T22:59:46;18.20;99.90
24638;DHT22;12773;50.162;8.548;2022-07-06T23:02:34;18.20;99.90
24638;DHT22;12773;50.162;8.548;2022-07-06T23:05:21;18.20;99.90
24638;DHT22;12773;50.162;8.548;2022-07-06T23:08:09;18.20;99.90
24638;DHT22;12773;50.162;8.548;2022-07-06T23:10:56;18.30;99.90
24638;DHT22;12773;50.162;8.548;2022-07-06T23:13:44;18.50;99.90
24638;DHT22;12773;50.162;8.548;2022-07-06T23:16:31;18.50;99.90
24638;DHT22;12773;50.162;8.548;2022-07-06T23:19:19;18.70;99.90
24638;DHT22;12773;50.162;8.548;2022-07-06T23:22:06;18.70;99.90
24638;DHT22;12773;50.162;8.548;2022-07-06T23:24:54;18.70;99.90
24638;DHT22;12773;50.162;8.548;2022-07-06T23:27:41;18.70;99.90
24638;DHT22;12773;50.162;8.548;2022-07-06T23:30:29;18.70;99.90
24638;DHT22;12773;50.162;8.548;2022-07-06T23:33:16;18.70;99.90
24638;DHT22;12773;50.162;8.548;2022-07-06T23:36:04;18.70;99.90
24638;DHT22;12773;50.162;8.548;2022-07-06T23:38:52;18.70;99.90
24638;DHT22;12773;50.162;8.548;2022-07-06T23:41:39;18.80;99.90
24638;DHT22;12773;50.162;8.548;2022-07-06T23:44:27;18.70;99.90
24638;DHT22;12773;50.162;8.548;2022-07-06T23:47:16;18.70;99.90
24638;DHT22;12773;50.162;8.548;2022-07-06T23:50:04;18.80;99.90
24638;DHT22;12773;50.162;8.548;2022-07-06T23:52:51;18.80;99.90
24638;DHT22;12773;50.162;8.548;2022-07-06T23:55:39;18.80;99.90
24638;DHT22;12773;50.162;8.548;2022-07-06T23:58:26;18.80;99.90
